Time;durP1;ratioP1;P1;durP2;ratioP2;P2;SDS_P1;SDS_P2;PMS_P1;PMS_P2;Temp;Humidity;BMP_temperature;BMP_pressure;BME280_temperature;BME280_humidity;BME280_pressure;Samples;Min_cycle;Max_cycle;Signal;HPM_P1;HPM_P2
2023/08/30 00:02:08;;;;;;;20.25;9.63;;;;;;;11.09;100.00;100739.06;5072870;28;20052;-63
2023/08/30 00:04:33;;;;;;;20.33;9.07;;;;;;;11.05;100.00;100741.72;5072657;28;20461;-64
2023/08/30 00:06:58;;;;;;;21.40;9.23;;;;;;;11.07;100.00;100735.56;5072683;28;20052;-63
2023/08/30 00:09:25;;;;;;;20.67;9.30;;;;;;;11.00;100.00;100736.44;5072480;28;20028;-62
2023/08/30 00:11:50;;;;;;;20.77;8.75;;;;;;;10.99;100.00;100732.00;5072402;28;20028;-62
2023/08/30 00:14:15;;;;;;;20.63;9.02;;;;;;;11.04;100.00;100735.56;5072164;28;20029;-61
2023/08/30 00:16:41;;;;;;;21.05;8.55;;;;;;;11.05;100.00;100734.66;5072529;28;20539;-63
2023/08/30 00:19:06;;;;;;;20.20;8.38;;;;;;;10.99;100.00;100732.00;5072272;28;20115;-68
2023/08/30 00:21:32;;;;;;;19.95;8.60;;;;;;;10.97;100.00;100729.38;5070963;28;20040;-69
2023/08/30 00:23:57;;;;;;;19.73;9.13;;;;;;;10.94;100.00;100728.50;5071127;28;20128;-69
2023/08/30 00:26:22;;;;;;;20.73;8.52;;;;;;;10.84;100.00;100726.72;5072061;28;20067;-69
2023/08/30 00:28:48;;;;;;;20.55;9.20;;;;;;;10.81;100.00;100728.47;5072328;28;20028;-69
2023/08/30 00:31:13;;;;;;;20.25;8.98;;;;;;;10.86;100.00;100730.25;5072363;28;20032;-69
2023/08/30 00:33:39;;;;;;;20.17;9.00;;;;;;;10.84;100.00;100729.38;5070815;28;20418;-68
2023/08/30 00:36:04;;;;;;;19.70;9.07;;;;;;;10.73;100.00;100726.69;5071103;28;20036;-69
2023/08/30 00:38:33;;;;;;;20.02;9.27;;;;;;;10.61;100.00;100733.69;5068059;28;20029;-68
2023/08/30 00:40:58;;;;;;;21.85;9.32;;;;;;;10.60;100.00;100728.41;5072042;28;20138;-69
2023/08/30 00:43:24;;;;;;;20.45;9.23;;;;;;;10.69;100.00;100716.97;5072463;28;20478;-69
2023/08/30 00:45:49;;;;;;;21.42;10.57;;;;;;;10.73;100.00;100713.47;5071961;28;20043;-69
2023/08/30 00:48:16;;;;;;;21.55;10.77;;;;;;;10.79;100.00;100709.09;5072162;28;20070;-68
2023/08/30 00:50:42;;;;;;;20.60;10.05;;;;;;;10.72;100.00;100702.03;5072499;28;20025;-69
2023/08/30 00:53:08;;;;;;;23.00;10.40;;;;;;;10.79;100.00;100695.88;5071866;28;20029;-68
2023/08/30 00:55:35;;;;;;;21.65;9.85;;;;;;;10.69;100.00;100696.72;5075554;28;20467;-68
2023/08/30 00:58:01;;;;;;;21.58;9.73;;;;;;;10.59;100.00;100693.19;5071978;28;20123;-67
2023/08/30 01:00:31;;;;;;;21.23;10.25;;;;;;;10.59;100.00;100694.94;5075339;28;20029;-69
2023/08/30 01:02:56;;;;;;;21.92;10.77;;;;;;;10.63;100.00;100697.59;5075385;28;20043;-67
2023/08/30 01:05:22;;;;;;;21.65;9.88;;;;;;;10.54;100.00;100694.03;5075369;28;20434;-66
2023/08/30 01:07:51;;;;;;;22.42;9.65;;;;;;;10.54;100.00;100696.69;5075315;28;20029;-68
2023/08/30 01:10:21;;;;;;;21.63;10.27;;;;;;;10.66;100.00;100694.09;5075188;28;20032;-67
2023/08/30 01:12:50;;;;;;;22.38;9.60;;;;;;;10.59;100.00;100687.91;5075568;28;20029;-69
2023/08/30 01:15:19;;;;;;;21.48;10.43;;;;;;;10.70;100.00;100687.91;5075315;28;20111;-67
2023/08/30 01:17:47;;;;;;;21.17;9.50;;;;;;;10.63;100.00;100692.31;5075100;28;20119;-69
2023/08/30 01:20:17;;;;;;;20.83;9.75;;;;;;;10.54;100.00;100687.03;5075006;28;20021;-68
2023/08/30 01:22:45;;;;;;;20.33;8.60;;;;;;;10.42;100.00;100682.56;5075297;28;20032;-69
2023/08/30 01:26:01;;;;;;;19.85;9.38;;;;;;;10.40;100.00;100686.09;5074827;28;20028;-68
2023/08/30 01:28:31;;;;;;;20.63;10.07;;;;;;;10.49;100.00;100678.19;5073531;28;20044;-69
2023/08/30 01:30:58;;;;;;;22.40;10.98;;;;;;;10.46;100.00;100681.69;5075057;28;20142;-66
2023/08/30 01:33:27;;;;;;;21.90;10.60;;;;;;;10.37;100.00;100689.63;5074797;28;20032;-67
2023/08/30 01:35:56;;;;;;;21.23;10.85;;;;;;;10.37;100.00;100684.31;5075015;28;20077;-69
2023/08/30 01:38:23;;;;;;;21.40;10.80;;;;;;;10.39;100.00;100687.84;5074944;28;20036;-68
2023/08/30 01:40:49;;;;;;;21.95;9.80;;;;;;;10.34;100.00;100678.13;5074768;28;20024;-67
2023/08/30 01:43:16;;;;;;;21.95;10.95;;;;;;;10.34;100.00;100686.06;5074638;28;20105;-68
2023/08/30 01:45:43;;;;;;;23.13;10.55;;;;;;;10.31;100.00;100686.94;5074813;28;20033;-69
2023/08/30 01:48:11;;;;;;;21.83;10.50;;;;;;;10.37;100.00;100686.97;5074633;28;20028;-67
2023/08/30 01:50:39;;;;;;;20.52;9.32;;;;;;;10.32;100.00;100685.16;5074550;28;20532;-68
2023/08/30 01:53:05;;;;;;;19.83;9.35;;;;;;;10.30;100.00;100682.50;5073325;28;20043;-67
2023/08/30 01:55:32;;;;;;;21.63;9.60;;;;;;;10.18;100.00;100679.81;5070367;28;20499;-68
2023/08/30 01:57:57;;;;;;;21.42;9.73;;;;;;;10.10;100.00;100674.50;5074363;28;20119;-68
2023/08/30 02:00:22;;;;;;;20.85;9.65;;;;;;;10.07;100.00;100678.03;5074497;28;20443;-69
2023/08/30 02:02:48;;;;;;;20.40;9.48;;;;;;;9.98;100.00;100672.72;5074275;28;20031;-68
2023/08/30 02:05:13;;;;;;;20.40;9.52;;;;;;;9.93;100.00;100672.69;5071730;28;20033;-69
2023/08/30 02:07:54;;;;;;;20.75;9.75;;;;;;;9.92;100.00;100680.63;5074330;28;20131;-61
2023/08/30 02:10:25;;;;;;;21.13;9.70;;;;;;;9.89;100.00;100681.47;5074293;28;20016;-62
2023/08/30 02:12:54;;;;;;;21.38;9.90;;;;;;;9.83;100.00;100681.47;5073981;28;20063;-62
2023/08/30 02:15:21;;;;;;;21.67;10.02;;;;;;;9.84;100.00;100677.91;5073987;28;20047;-61
2023/08/30 02:17:48;;;;;;;21.27;9.68;;;;;;;9.85;100.00;100671.78;5074172;28;20060;-61
2023/08/30 02:20:13;;;;;;;21.63;9.73;;;;;;;9.85;100.00;100669.13;5073833;28;20074;-61
2023/08/30 02:22:38;;;;;;;20.77;9.55;;;;;;;9.86;100.00;100665.63;5073870;28;20032;-61
2023/08/30 02:25:04;;;;;;;20.48;9.05;;;;;;;9.85;100.00;100662.97;5074029;28;20043;-61
2023/08/30 02:27:33;;;;;;;20.65;9.63;;;;;;;9.88;100.00;100658.59;5074035;28;20517;-61
2023/08/30 02:29:59;;;;;;;20.92;9.48;;;;;;;9.88;100.00;100663.88;5073621;28;20025;-61
2023/08/30 02:32:24;;;;;;;21.08;9.90;;;;;;;9.98;100.00;100662.16;5073901;28;20031;-61
2023/08/30 02:34:52;;;;;;;20.90;9.43;;;;;;;10.00;100.00;100656.88;5073625;28;20040;-62
2023/08/30 02:37:18;;;;;;;20.48;9.70;;;;;;;10.07;100.00;100653.38;5073585;28;20021;-66
2023/08/30 02:39:44;;;;;;;21.88;10.25;;;;;;;10.12;100.00;100649.88;5073682;28;20020;-66
2023/08/30 02:42:09;;;;;;;21.08;9.60;;;;;;;10.20;100.00;100649.88;5073505;28;20383;-65
2023/08/30 02:44:34;;;;;;;22.38;9.63;;;;;;;10.22;100.00;100642.88;5073408;28;20360;-61
2023/08/30 02:47:00;;;;;;;20.80;9.50;;;;;;;10.25;100.00;100641.97;5073793;28;20037;-60
2023/08/30 02:49:25;;;;;;;21.08;9.48;;;;;;;10.33;100.00;100642.88;5073357;28;20062;-63
2023/08/30 02:51:51;;;;;;;21.42;9.45;;;;;;;10.38;100.00;100646.47;5073262;28;20036;-60
2023/08/30 02:54:16;;;;;;;20.85;9.45;;;;;;;10.43;100.00;100642.06;5073498;28;20040;-62
2023/08/30 02:56:43;;;;;;;20.80;9.10;;;;;;;10.48;100.00;100641.19;5073473;28;20376;-64
2023/08/30 02:59:09;;;;;;;20.38;9.55;;;;;;;10.52;100.00;100641.19;5073315;28;20025;-60
2023/08/30 03:01:35;;;;;;;20.55;9.63;;;;;;;10.59;100.00;100631.50;5073637;28;20111;-62
2023/08/30 03:04:00;;;;;;;21.63;10.13;;;;;;;10.70;100.00;100632.38;5072975;28;20440;-62
2023/08/30 03:06:25;;;;;;;21.02;9.77;;;;;;;10.78;100.00;100624.47;5073204;28;20032;-62
2023/08/30 03:08:51;;;;;;;21.63;10.25;;;;;;;10.81;100.00;100627.97;5073003;28;20033;-61
2023/08/30 03:11:16;;;;;;;21.30;10.52;;;;;;;10.90;100.00;100627.09;5073181;28;20024;-61
2023/08/30 03:13:41;;;;;;;20.90;10.52;;;;;;;10.93;100.00;100635.03;5073353;28;20062;-64
2023/08/30 03:16:14;;;;;;;22.92;11.35;;;;;;;11.01;100.00;100639.44;5072779;28;20402;-61
2023/08/30 03:18:40;;;;;;;22.95;10.80;;;;;;;11.06;100.00;100627.97;5072873;28;20476;-67
2023/08/30 03:21:07;;;;;;;21.98;11.20;;;;;;;11.05;100.00;100634.13;5073366;28;20373;-62
2023/08/30 03:23:33;;;;;;;22.08;10.82;;;;;;;11.14;100.00;100634.16;5068820;28;20025;-61
2023/08/30 03:25:59;;;;;;;22.50;12.10;;;;;;;11.19;100.00;100634.13;5072717;28;20514;-62
2023/08/30 03:28:24;;;;;;;21.60;11.65;;;;;;;11.26;100.00;100619.13;5073029;28;20107;-61
2023/08/30 03:30:50;;;;;;;23.33;12.68;;;;;;;11.30;100.00;100618.22;5072760;28;20544;-63
2023/08/30 03:33:15;;;;;;;22.65;12.40;;;;;;;11.32;100.00;100613.81;5072773;28;20383;-61
2023/08/30 03:35:40;;;;;;;22.90;12.18;;;;;;;11.33;100.00;100610.31;5088467;28;20166;-62
2023/08/30 03:38:06;;;;;;;22.95;12.40;;;;;;;11.32;100.00;100608.53;5071511;28;20048;-61
2023/08/30 03:40:31;;;;;;;22.27;12.27;;;;;;;11.31;100.00;100596.19;5072749;28;20032;-62
2023/08/30 03:42:56;;;;;;;23.75;12.63;;;;;;;11.34;100.00;100590.88;5088626;28;20082;-62
2023/08/30 03:45:22;;;;;;;22.98;12.52;;;;;;;11.36;100.00;100589.13;5072565;28;20378;-63
2023/08/30 03:47:47;;;;;;;21.75;12.07;;;;;;;11.38;100.00;100582.03;5072606;28;20033;-63
2023/08/30 03:50:13;;;;;;;22.50;12.55;;;;;;;11.40;100.00;100576.75;5072815;28;20052;-62
2023/08/30 03:52:38;;;;;;;23.23;12.63;;;;;;;11.45;100.00;100567.03;5072576;28;20025;-61
2023/08/30 03:55:04;;;;;;;22.85;12.50;;;;;;;11.46;100.00;100564.38;5072701;28;20024;-61
2023/08/30 03:57:29;;;;;;;22.38;12.52;;;;;;;11.49;100.00;100564.38;5072712;28;20028;-62
2023/08/30 03:59:55;;;;;;;24.15;12.98;;;;;;;11.49;100.00;100553.78;5072509;28;20033;-61
2023/08/30 04:02:20;;;;;;;23.63;13.05;;;;;;;11.51;100.00;100554.63;5072714;28;20028;-61
2023/08/30 04:04:49;;;;;;;23.70;13.10;;;;;;;11.44;100.00;100544.97;5072382;28;20036;-62
2023/08/30 04:07:15;;;;;;;23.20;13.63;;;;;;;11.34;100.00;100535.28;5072350;28;20032;-62
2023/08/30 04:09:40;;;;;;;24.92;14.27;;;;;;;11.24;100.00;100530.94;5072650;28;20029;-67
2023/08/30 04:12:06;;;;;;;24.00;14.00;;;;;;;11.16;100.00;100529.19;5072641;28;20029;-68
2023/08/30 04:14:31;;;;;;;25.17;14.40;;;;;;;11.10;100.00;100529.22;5072558;28;20540;-69
2023/08/30 04:16:57;;;;;;;24.58;14.20;;;;;;;11.02;100.00;100541.56;5072548;28;20060;-68
2023/08/30 04:19:22;;;;;;;25.42;15.15;;;;;;;10.93;100.00;100545.09;5072210;28;20116;-69
2023/08/30 04:21:47;;;;;;;24.90;15.07;;;;;;;10.98;100.00;100545.13;5072272;28;20040;-69
2023/08/30 04:24:14;;;;;;;25.40;15.02;;;;;;;11.08;100.00;100545.97;5072409;28;20468;-68
2023/08/30 04:26:40;;;;;;;25.75;14.82;;;;;;;11.18;100.00;100546.81;5072029;28;20132;-69
2023/08/30 04:29:05;;;;;;;24.27;14.13;;;;;;;11.30;100.00;100536.19;5089296;28;20108;-69
2023/08/30 04:31:31;;;;;;;23.75;14.27;;;;;;;11.34;100.00;100541.50;5076185;28;20054;-68
2023/08/30 04:33:56;;;;;;;23.90;14.27;;;;;;;11.39;100.00;100533.53;5075937;28;20036;-68
2023/08/30 04:36:22;;;;;;;24.23;14.70;;;;;;;11.42;100.00;100533.50;5074604;28;20443;-69
2023/08/30 04:38:47;;;;;;;24.88;14.80;;;;;;;11.49;100.00;100522.00;5076212;28;20104;-69
2023/08/30 04:41:13;;;;;;;24.02;14.13;;;;;;;11.53;100.00;100530.81;5075821;28;20055;-69
2023/08/30 04:43:38;;;;;;;25.17;14.45;;;;;;;11.61;100.00;100530.78;5075893;28;20107;-69
2023/08/30 04:46:04;;;;;;;23.67;14.05;;;;;;;11.66;100.00;100532.53;5075966;28;20025;-69
2023/08/30 04:48:29;;;;;;;23.30;13.27;;;;;;;11.72;100.00;100525.44;5075730;28;20024;-66
2023/08/30 04:51:02;;;;;;;24.33;13.73;;;;;;;11.75;100.00;100513.06;5076050;28;20036;-69
2023/08/30 04:53:28;;;;;;;24.13;13.43;;;;;;;11.79;100.00;100520.09;5075848;28;20029;-69
2023/08/30 04:55:54;;;;;;;23.38;13.60;;;;;;;11.83;100.00;100516.53;5075503;28;20560;-69
2023/08/30 04:58:19;;;;;;;24.27;13.15;;;;;;;11.86;100.00;100503.25;5074185;28;20035;-62
2023/08/30 05:00:44;;;;;;;23.02;13.18;;;;;;;11.91;100.00;100502.38;5075716;28;20060;-69
2023/08/30 05:03:10;;;;;;;23.67;13.40;;;;;;;11.96;100.00;100500.63;5091195;28;20025;-69
2023/08/30 05:05:35;;;;;;;23.70;13.70;;;;;;;11.96;100.00;100497.97;5075516;28;20040;-69
2023/08/30 05:08:00;;;;;;;23.83;13.63;;;;;;;11.99;100.00;100496.16;5075358;28;20020;-67
2023/08/30 05:10:26;;;;;;;25.90;13.68;;;;;;;12.02;100.00;100493.47;5073991;28;20064;-65
2023/08/30 05:12:51;;;;;;;23.70;13.45;;;;;;;12.05;100.00;100495.22;5075420;28;20031;-68
2023/08/30 05:15:18;;;;;;;24.50;13.82;;;;;;;12.08;100.00;100495.22;5075441;28;20047;-69
2023/08/30 05:17:44;;;;;;;23.63;13.70;;;;;;;12.09;100.00;100490.81;5075178;28;20464;-69
2023/08/30 05:20:09;;;;;;;23.95;13.60;;;;;;;12.13;100.00;100492.53;5075358;28;20082;-69
2023/08/30 05:22:35;;;;;;;24.15;13.43;;;;;;;12.18;100.00;100481.00;5075016;28;20029;-69
2023/08/30 05:25:01;;;;;;;24.60;14.20;;;;;;;12.27;100.00;100480.03;5074869;28;20368;-68
2023/08/30 05:27:27;;;;;;;23.60;13.50;;;;;;;12.37;100.00;100480.84;5073718;28;20045;-68
2023/08/30 05:29:52;;;;;;;23.85;12.93;;;;;;;12.44;100.00;100485.22;5074899;28;20387;-68
2023/08/30 05:32:18;;;;;;;23.20;13.38;;;;;;;12.47;100.00;100481.66;5073983;28;20020;-71
2023/08/30 05:34:43;;;;;;;23.95;13.65;;;;;;;12.52;100.00;100491.34;5076935;28;20032;-70
2023/08/30 05:37:08;;;;;;;24.52;13.60;;;;;;;12.56;100.00;100490.38;5074753;28;20541;-70
2023/08/30 05:39:34;;;;;;;23.27;13.60;;;;;;;12.60;100.00;100485.94;5074399;28;20039;-70
2023/08/30 05:42:00;;;;;;;23.40;12.88;;;;;;;12.63;100.00;100474.44;5074727;28;20064;-70
2023/08/30 05:44:25;;;;;;;23.70;13.55;;;;;;;12.66;100.00;100474.41;5074370;28;20241;-71
2023/08/30 05:46:51;;;;;;;24.50;13.60;;;;;;;12.68;100.00;100475.25;5074755;28;20031;-71
2023/08/30 05:49:16;;;;;;;23.02;13.13;;;;;;;12.72;100.00;100466.38;5074414;28;20115;-70
2023/08/30 05:51:42;;;;;;;23.00;13.43;;;;;;;12.76;100.00;100462.81;5074683;28;20071;-72
2023/08/30 05:54:07;;;;;;;23.58;13.57;;;;;;;12.81;100.00;100460.97;5074668;28;20036;-72
2023/08/30 05:56:32;;;;;;;23.17;13.27;;;;;;;12.83;100.00;100464.50;5073902;28;20040;-69
2023/08/30 05:58:58;;;;;;;22.90;13.10;;;;;;;12.93;100.00;100461.72;5074090;28;20105;-70
2023/08/30 06:01:23;;;;;;;23.20;13.15;;;;;;;12.94;100.00;100466.16;5074433;28;20047;-72
2023/08/30 06:03:49;;;;;;;24.27;14.05;;;;;;;12.99;100.00;100451.03;5089776;28;20079;-71
2023/08/30 06:06:15;;;;;;;23.17;12.88;;;;;;;13.03;100.00;100450.09;5074345;28;20041;-70
2023/08/30 06:08:41;;;;;;;24.15;13.07;;;;;;;13.10;100.00;100451.78;5072805;28;20048;-63
2023/08/30 06:11:06;;;;;;;22.95;12.23;;;;;;;13.15;100.00;100449.97;5073955;28;20052;-65
2023/08/30 06:13:31;;;;;;;22.35;12.27;;;;;;;13.17;100.00;100447.31;5073810;28;20112;-64
2023/08/30 06:15:57;;;;;;;23.00;12.65;;;;;;;13.16;100.00;100453.50;5074451;28;20379;-65
2023/08/30 06:18:22;;;;;;;22.58;12.52;;;;;;;13.16;100.00;100451.72;5089525;28;20462;-65
2023/08/30 06:20:48;;;;;;;22.75;12.90;;;;;;;13.07;100.00;100452.69;5073837;28;20028;-66
2023/08/30 06:23:15;;;;;;;23.48;12.90;;;;;;;12.82;100.00;100462.72;5074008;28;20521;-67
2023/08/30 06:25:40;;;;;;;23.10;12.80;;;;;;;12.63;100.00;100456.75;5073340;28;20395;-67
2023/08/30 06:28:06;;;;;;;24.75;13.40;;;;;;;12.56;100.00;100444.44;5073839;28;20037;-65
2023/08/30 06:30:31;;;;;;;24.85;14.63;;;;;;;12.51;100.00;100452.44;5073204;28;20090;-68
2023/08/30 06:32:57;;;;;;;23.20;13.57;;;;;;;12.52;100.00;100453.31;5073365;28;20032;-64
2023/08/30 06:35:23;;;;;;;23.73;13.60;;;;;;;12.53;100.00;100453.28;5073598;28;20032;-65
2023/08/30 06:37:48;;;;;;;24.25;13.60;;;;;;;12.63;100.00;100462.03;5073275;28;20033;-60
2023/08/30 06:40:14;;;;;;;24.23;14.02;;;;;;;12.66;100.00;100466.44;5073322;28;20037;-66
2023/08/30 06:42:39;;;;;;;24.67;13.90;;;;;;;12.60;100.00;100469.16;5073183;28;20064;-65
2023/08/30 06:45:05;;;;;;;25.17;14.35;;;;;;;12.47;100.00;100471.91;5073151;28;20062;-62
2023/08/30 06:47:31;;;;;;;25.95;15.60;;;;;;;12.29;100.00;100469.44;5073102;28;20392;-66
2023/08/30 06:49:56;;;;;;;27.23;16.75;;;;;;;12.17;100.00;100471.31;5073611;28;20028;-67
2023/08/30 06:52:22;;;;;;;26.85;16.92;;;;;;;12.08;100.00;100478.44;5072564;28;20484;-67
2023/08/30 06:54:48;;;;;;;28.13;16.98;;;;;;;12.02;100.00;100480.22;5072915;28;20395;-66
2023/08/30 06:57:13;;;;;;;27.30;17.30;;;;;;;11.99;100.00;100474.97;5073198;28;20025;-63
2023/08/30 06:59:38;;;;;;;28.40;17.77;;;;;;;11.95;100.00;100480.31;5072987;28;20072;-64
2023/08/30 07:02:04;;;;;;;31.35;18.88;;;;;;;11.93;100.00;100484.72;5072778;28;20048;-60
2023/08/30 07:04:29;;;;;;;31.60;19.15;;;;;;;11.92;100.00;100482.94;5073267;28;20387;-62
2023/08/30 07:06:55;;;;;;;31.73;20.40;;;;;;;11.86;100.00;100483.84;5072804;28;20375;-62
2023/08/30 07:09:22;;;;;;;35.25;21.48;;;;;;;11.86;100.00;100471.47;5072960;28;20494;-62
2023/08/30 07:11:47;;;;;;;32.80;21.13;;;;;;;11.85;100.00;100469.75;5072826;28;20033;-63
2023/08/30 07:14:14;;;;;;;34.67;21.48;;;;;;;11.89;100.00;100459.13;5071410;28;20395;-64
2023/08/30 07:16:40;;;;;;;32.85;19.48;;;;;;;11.84;100.00;100449.44;5072932;28;20024;-63
2023/08/30 07:19:05;;;;;;;34.08;19.65;;;;;;;11.84;100.00;100449.44;5072672;28;20047;-63
2023/08/30 07:21:30;;;;;;;32.03;20.48;;;;;;;11.80;100.00;100442.41;5072599;28;20094;-64
2023/08/30 07:23:56;;;;;;;34.75;20.52;;;;;;;11.82;100.00;100445.03;5072778;28;20039;-64
2023/08/30 07:26:21;;;;;;;37.72;21.90;;;;;;;11.88;100.00;100444.13;5072533;28;20499;-63
2023/08/30 07:28:47;;;;;;;33.33;20.02;;;;;;;11.89;100.00;100448.53;5065297;28;20368;-68
2023/08/30 07:31:15;;;;;;;33.38;19.67;;;;;;;11.84;100.00;100452.09;5071047;28;20035;-64
2023/08/30 07:33:41;;;;;;;34.22;19.65;;;;;;;11.86;100.00;100452.94;5071690;28;20058;-64
2023/08/30 07:36:06;;;;;;;34.58;18.77;;;;;;;11.89;100.00;100448.53;5072234;28;20048;-65
2023/08/30 07:38:32;;;;;;;30.58;18.08;;;;;;;11.88;100.00;100434.38;5072822;28;20051;-66
2023/08/30 07:40:57;;;;;;;30.88;17.95;;;;;;;11.90;100.00;100434.38;5072545;28;20033;-65
2023/08/30 07:43:22;;;;;;;32.75;18.48;;;;;;;12.00;100.00;100438.78;5072006;28;20094;-72
2023/08/30 07:45:48;;;;;;;32.88;17.67;;;;;;;11.99;100.00;100434.38;5072500;28;20040;-68
2023/08/30 07:48:13;;;;;;;30.23;17.50;;;;;;;12.02;100.00;100434.34;5072284;28;20512;-71
2023/08/30 07:50:39;;;;;;;29.90;16.85;;;;;;;11.98;100.00;100432.59;5072831;28;20107;-70
2023/08/30 07:53:04;;;;;;;30.70;17.15;;;;;;;12.02;100.00;100436.97;5072436;28;20032;-64
2023/08/30 07:55:29;;;;;;;30.30;16.48;;;;;;;12.02;100.00;100426.38;5072393;28;20039;-63
2023/08/30 07:57:55;;;;;;;28.33;15.48;;;;;;;12.02;100.00;100436.97;5072566;28;20384;-70
2023/08/30 08:00:20;;;;;;;31.45;17.35;;;;;;;12.08;100.00;100433.41;5072492;28;20039;-66
2023/08/30 08:02:46;;;;;;;30.13;17.25;;;;;;;12.12;100.00;100429.84;5069741;28;20047;-65
2023/08/30 08:05:11;;;;;;;28.65;15.73;;;;;;;12.08;100.00;100431.63;5072091;28;20052;-66
2023/08/30 08:07:39;;;;;;;27.40;15.93;;;;;;;12.14;100.00;100442.16;5072653;28;20027;-69
2023/08/30 08:10:05;;;;;;;28.10;16.00;;;;;;;12.15;100.00;100441.28;5072822;28;20008;-69
2023/08/30 08:12:31;;;;;;;26.65;14.57;;;;;;;12.16;100.00;100440.41;5070934;28;20503;-65
2023/08/30 08:14:56;;;;;;;26.67;15.10;;;;;;;12.17;100.00;100439.50;5076093;28;20043;-64
2023/08/30 08:17:21;;;;;;;28.33;14.93;;;;;;;12.18;100.00;100446.56;5078880;28;20111;-64
2023/08/30 08:19:47;;;;;;;28.63;16.08;;;;;;;12.21;100.00;100443.88;5076293;28;20032;-68
2023/08/30 08:22:12;;;;;;;26.67;15.18;;;;;;;12.19;100.00;100445.66;5075830;28;20032;-67
2023/08/30 08:24:37;;;;;;;25.88;14.43;;;;;;;12.18;100.00;100445.69;5074601;28;20393;-66
2023/08/30 08:27:05;;;;;;;27.13;13.85;;;;;;;12.19;100.00;100448.31;5074604;28;20071;-67
2023/08/30 08:29:30;;;;;;;24.55;12.90;;;;;;;12.23;100.00;100451.81;5075911;28;20475;-67
2023/08/30 08:31:56;;;;;;;26.02;13.63;;;;;;;12.31;100.00;100441.16;5071829;28;20069;-68
2023/08/30 08:34:21;;;;;;;27.40;13.70;;;;;;;12.29;100.00;100448.22;5071863;28;20028;-67
2023/08/30 08:36:46;;;;;;;24.10;13.07;;;;;;;12.25;100.00;100447.38;5075692;28;20117;-70
2023/08/30 08:39:14;;;;;;;25.38;12.82;;;;;;;12.27;100.00;100448.25;5073502;28;20379;-67
2023/08/30 08:41:42;;;;;;;25.80;13.07;;;;;;;12.27;100.00;100450.03;5066149;28;20039;-72
2023/08/30 08:44:09;;;;;;;25.75;12.77;;;;;;;12.33;100.00;100449.97;5075644;28;20039;-66
2023/08/30 08:46:36;;;;;;;23.00;11.85;;;;;;;12.33;100.00;100449.97;5075563;28;20044;-69
2023/08/30 08:49:20;;;;;;;23.38;11.35;;;;;;;12.35;100.00;100446.41;5071871;28;20475;-68
2023/08/30 08:51:45;;;;;;;24.23;11.77;;;;;;;12.38;100.00;100438.44;5072221;28;20361;-70
2023/08/30 08:54:12;;;;;;;23.63;11.70;;;;;;;12.42;100.00;100438.41;5075591;28;20078;-66
2023/08/30 08:56:38;;;;;;;23.35;11.80;;;;;;;12.40;100.00;100445.50;5075730;28;20035;-70
2023/08/30 08:59:11;;;;;;;23.08;11.40;;;;;;;12.40;100.00;100438.41;5075820;28;20039;-66
2023/08/30 09:01:39;;;;;;;22.83;10.85;;;;;;;12.53;100.00;100453.28;5075433;28;20051;-70
2023/08/30 09:04:10;;;;;;;23.65;11.48;;;;;;;12.72;100.00;100446.03;5075313;28;20074;-67
2023/08/30 09:06:36;;;;;;;23.20;11.63;;;;;;;12.89;100.00;100459.13;5075561;28;20029;-67
2023/08/30 09:09:08;;;;;;;23.40;11.38;;;;;;;12.94;100.00;100443.13;5075369;28;20033;-70
2023/08/30 09:11:33;;;;;;;23.35;12.07;;;;;;;13.13;100.00;100440.28;5073262;28;20029;-70
2023/08/30 09:13:59;;;;;;;24.63;13.30;;;;;;;13.39;100.00;100442.63;5075079;28;20042;-70
2023/08/30 09:16:24;;;;;;;23.85;12.23;;;;;;;13.42;100.00;100439.91;5075108;28;20020;-69
2023/08/30 09:19:03;;;;;;;22.85;12.32;;;;;;;13.62;100.00;100436.13;5075191;28;20107;-70
2023/08/30 09:21:29;;;;;;;23.30;12.18;;;;;;;13.62;100.00;100436.97;5072503;28;20463;-70
2023/08/30 09:24:02;;;;;;;23.40;11.95;;;;;;;13.50;100.00;100443.34;5075116;28;20047;-66
2023/08/30 09:26:29;;;;;;;23.40;12.13;;;;;;;13.47;100.00;100434.53;5074641;28;20559;-71
2023/08/30 09:28:55;;;;;;;22.67;11.18;;;;;;;13.46;100.00;100451.38;5074876;28;20036;-69
2023/08/30 09:31:21;;;;;;;23.50;11.73;;;;;;;13.47;100.00;100445.16;5075391;28;20036;-70
2023/08/30 09:33:49;;;;;;;22.38;11.18;;;;;;;13.37;100.00;100452.38;5075052;28;20032;-69
2023/08/30 09:36:15;;;;;;;22.35;10.93;;;;;;;13.38;100.00;100448.81;5074811;28;20536;-69
2023/08/30 09:38:40;;;;;;;22.33;10.75;;;;;;;13.45;100.00;100453.13;5074929;28;20028;-70
2023/08/30 09:41:06;;;;;;;23.73;11.68;;;;;;;13.88;100.00;100454.31;5074628;28;20531;-70
2023/08/30 09:43:34;;;;;;;22.80;12.35;;;;;;;13.91;100.00;100451.59;5074587;28;20086;-68
2023/08/30 09:46:04;;;;;;;21.88;10.73;;;;;;;13.77;100.00;100455.34;5074709;28;20032;-76
2023/08/30 09:48:31;;;;;;;22.13;11.30;;;;;;;13.80;100.00;100457.06;5074583;28;20043;-75
2023/08/30 09:50:59;;;;;;;22.25;11.80;;;;;;;13.93;100.00;100453.31;5074447;28;20024;-72
2023/08/30 09:53:27;;;;;;;22.13;11.93;;;;;;;14.27;100.00;100455.44;5074786;28;20013;-75
2023/08/30 09:55:54;;;;;;;22.10;11.73;;;;;;;14.42;100.00;100453.41;5074438;28;20028;-70
2023/08/30 09:58:21;;;;;;;22.40;12.10;;;;;;;14.97;100.00;100457.72;5074389;28;20032;-69
2023/08/30 10:00:47;;;;;;;21.75;11.90;;;;;;;15.33;100.00;100452.56;5074492;28;20070;-76
2023/08/30 10:03:12;;;;;;;20.73;10.50;;;;;;;15.87;100.00;100447.81;5074172;28;20578;-76
2023/08/30 10:05:40;;;;;;;20.00;9.93;;;;;;;16.36;100.00;100443.06;5074354;28;20041;-73
2023/08/30 10:08:08;;;;;;;19.70;9.52;;;;;;;16.26;100.00;100431.75;5074623;28;20360;-72
2023/08/30 10:10:35;;;;;;;19.42;9.30;;;;;;;16.19;100.00;100423.06;5074211;28;20021;-74
2023/08/30 10:13:01;;;;;;;19.10;8.77;;;;;;;15.92;100.00;100415.75;5073924;28;20021;-74
2023/08/30 10:15:30;;;;;;;19.13;9.27;;;;;;;15.95;100.00;100421.84;5074160;28;20025;-70
2023/08/30 10:17:58;;;;;;;20.42;9.63;;;;;;;16.82;100.00;100411.56;5073115;28;20492;-73
2023/08/30 10:20:24;;;;;;;19.25;9.50;;;;;;;17.63;100.00;100407.44;5069492;28;20028;-69
2023/08/30 10:22:52;;;;;;;19.73;8.90;;;;;;;17.91;100.00;100391.38;5073417;28;20043;-71
2023/08/30 10:25:22;;;;;;;19.55;8.40;;;;;;;17.13;100.00;100381.38;5073808;28;20040;-69
2023/08/30 10:27:49;;;;;;;20.20;9.32;;;;;;;17.84;100.00;100377.34;5072244;28;20143;-73
2023/08/30 10:30:16;;;;;;;19.55;8.80;;;;;;;18.57;100.00;100366.84;5073621;28;20049;-73
2023/08/30 10:32:43;;;;;;;17.73;8.20;;;;;;;18.53;100.00;100359.84;5073675;28;20086;-75
2023/08/30 10:35:17;;;;;;;17.17;7.32;;;;;;;19.22;100.00;100368.00;5073906;28;20032;-71
2023/08/30 10:37:54;;;;;;;19.30;8.07;;;;;;;18.47;100.00;100353.78;5073573;28;20471;-74
2023/08/30 10:40:21;;;;;;;19.23;8.40;;;;;;;17.66;100.00;100357.41;5073497;28;20032;-70
2023/08/30 10:42:57;;;;;;;18.15;8.15;;;;;;;18.38;100.00;100354.13;5073584;28;20024;-74
2023/08/30 10:45:24;;;;;;;17.45;6.90;;;;;;;19.65;100.00;100349.31;5069269;28;20035;-72
2023/08/30 10:47:54;;;;;;;17.25;6.97;;;;;;;20.19;100.00;100355.13;5073253;28;20498;-74
2023/08/30 10:50:30;;;;;;;16.98;7.10;;;;;;;19.79;100.00;100346.06;5071023;28;20025;-66
2023/08/30 10:52:56;;;;;;;16.70;6.80;;;;;;;19.46;100.00;100346.50;5074269;28;20031;-66
2023/08/30 10:55:23;;;;;;;17.08;6.90;;;;;;;19.77;100.00;100343.41;5073227;28;20028;-66
2023/08/30 10:57:59;;;;;;;15.70;5.97;;;;;;;20.17;100.00;100340.91;5072379;28;20032;-66
2023/08/30 11:00:24;;;;;;;15.70;6.38;;;;;;;20.00;100.00;100339.81;5070454;28;20031;-66
2023/08/30 11:02:51;;;;;;;16.90;6.20;;;;;;;20.22;100.00;100344.25;5073109;28;20028;-65